Time;durP1;ratioP1;P1;durP2;ratioP2;P2;SDS_P1;SDS_P2;PMS_P1;PMS_P2;Temp;Humidity;BMP_temperature;BMP_pressure;BME280_temperature;BME280_humidity;BME280_pressure;Samples;Min_cycle;Max_cycle;Signal;HPM_P1;HPM_P2
2020/12/30 00:01:23;;;;;;;25.10;11.97;;;;;;;7.78;82.25;100256.49;127790;1092;104436;-70
2020/12/30 00:03:52;;;;;;;31.67;15.03;;;;;;;7.74;81.80;100258.97;127801;1091;104531;-70
2020/12/30 00:06:21;;;;;;;38.00;23.13;;;;;;;7.69;81.65;100260.47;127825;1091;104436;-69
2020/12/30 00:08:50;;;;;;;33.03;20.43;;;;;;;7.65;81.77;100269.02;127743;1092;104404;-69
2020/12/30 00:11:19;;;;;;;32.93;18.53;;;;;;;7.59;82.13;100273.05;127815;1091;104523;-70
2020/12/30 00:13:49;;;;;;;29.37;15.87;;;;;;;7.55;81.87;100278.14;127789;1092;104515;-70
2020/12/30 00:16:18;;;;;;;28.73;15.07;;;;;;;7.54;81.64;100281.60;127791;1092;104403;-73
2020/12/30 00:18:49;;;;;;;26.60;15.30;;;;;;;7.54;81.95;100280.69;127811;1092;104452;-70
2020/12/30 00:21:18;;;;;;;31.10;16.10;;;;;;;7.54;81.86;100280.69;127783;1092;104413;-70
2020/12/30 00:23:48;;;;;;;28.65;15.25;;;;;;;7.54;81.53;100271.16;127808;1091;104474;-70
2020/12/30 00:26:20;;;;;;;28.20;14.50;;;;;;;7.51;81.60;100263.19;127756;1092;104408;-70
2020/12/30 00:28:49;;;;;;;30.70;15.23;;;;;;;7.49;81.64;100264.81;127731;1092;104423;-71
2020/12/30 00:31:18;;;;;;;27.93;14.03;;;;;;;7.48;81.77;100262.13;127741;1091;104453;-69
2020/12/30 00:33:47;;;;;;;27.17;12.93;;;;;;;7.48;82.12;100265.66;127787;1091;104407;-69
2020/12/30 00:36:16;;;;;;;24.83;11.97;;;;;;;7.49;82.13;100262.20;127845;1092;104480;-69
2020/12/30 00:38:45;;;;;;;26.87;12.27;;;;;;;7.53;81.93;100261.53;127829;1092;104452;-70
2020/12/30 00:41:14;;;;;;;25.53;13.27;;;;;;;7.56;82.28;100256.44;127822;1091;104423;-70
2020/12/30 00:43:44;;;;;;;26.50;12.77;;;;;;;7.58;82.13;100258.23;127815;1091;104643;-70
2020/12/30 00:46:18;;;;;;;25.60;14.23;;;;;;;7.56;82.27;100264.27;127771;1091;104502;-70
2020/12/30 00:48:47;;;;;;;31.37;15.93;;;;;;;7.55;82.29;100253.77;127793;1091;104404;-70
2020/12/30 00:51:16;;;;;;;27.87;14.67;;;;;;;7.51;81.91;100249.22;127814;1092;104398;-70
2020/12/30 00:53:45;;;;;;;28.70;13.50;;;;;;;7.46;81.39;100256.84;127817;1091;104420;-70
2020/12/30 00:56:15;;;;;;;27.43;13.43;;;;;;;7.42;81.57;100254.95;127816;1092;104570;-70
2020/12/30 00:58:44;;;;;;;29.50;14.00;;;;;;;7.36;81.71;100252.94;127802;1092;104535;-69
2020/12/30 01:01:14;;;;;;;27.83;14.83;;;;;;;7.33;81.46;100242.37;127802;1091;104410;-69
2020/12/30 01:03:54;;;;;;;30.07;14.40;;;;;;;7.30;81.86;100237.02;127798;1092;104244;-69
2020/12/30 01:06:23;;;;;;;32.40;14.30;;;;;;;7.30;81.71;100234.40;127803;1091;104579;-69
2020/12/30 01:08:52;;;;;;;26.43;14.00;;;;;;;7.24;81.36;100238.46;127825;1091;104401;-69
2020/12/30 01:11:27;;;;;;;25.97;12.50;;;;;;;7.16;81.47;100233.78;127812;1092;104628;-69
2020/12/30 01:13:57;;;;;;;24.37;12.03;;;;;;;7.11;81.63;100232.69;127846;1092;104411;-69
2020/12/30 01:16:27;;;;;;;22.23;10.13;;;;;;;7.07;81.28;100235.97;127773;1091;104471;-70
2020/12/30 01:18:56;;;;;;;23.63;10.10;;;;;;;7.06;81.39;100231.59;127839;1092;104414;-69
2020/12/30 01:21:25;;;;;;;20.47;9.63;;;;;;;7.06;81.37;100223.77;127846;1091;104407;-69
2020/12/30 01:23:54;;;;;;;26.80;10.10;;;;;;;7.09;81.89;100220.38;127785;1092;104491;-69
2020/12/30 01:26:23;;;;;;;23.97;10.87;;;;;;;7.09;81.44;100228.22;127836;1092;104398;-69
2020/12/30 01:28:51;;;;;;;20.83;9.40;;;;;;;7.05;81.68;100224.58;127801;1091;104403;-69
2020/12/30 01:31:25;;;;;;;22.13;9.30;;;;;;;7.06;81.65;100233.29;127797;1091;104413;-69
2020/12/30 01:33:55;;;;;;;23.93;10.13;;;;;;;7.06;81.92;100241.12;127760;1091;104398;-69
2020/12/30 01:36:24;;;;;;;20.07;8.33;;;;;;;7.06;81.78;100233.29;127775;1091;104560;-71
2020/12/30 01:38:54;;;;;;;25.03;9.67;;;;;;;7.09;81.70;100238.65;127837;1091;104897;-70
2020/12/30 01:41:25;;;;;;;20.43;9.27;;;;;;;7.10;81.62;100240.45;127819;1091;104535;-70
2020/12/30 01:43:58;;;;;;;20.50;8.60;;;;;;;7.10;81.64;100243.94;127830;1091;104471;-70
2020/12/30 01:46:39;;;;;;;17.25;8.63;;;;;;;7.05;81.79;100239.35;127819;1091;104467;-70
2020/12/30 01:49:11;;;;;;;20.87;8.03;;;;;;;7.02;81.67;100237.48;127796;1091;104401;-70
2020/12/30 01:51:42;;;;;;;20.03;8.03;;;;;;;7.02;81.82;100240.09;127831;1091;104904;-70
2020/12/30 01:54:12;;;;;;;21.57;7.83;;;;;;;7.04;81.46;100247.99;127827;1092;104494;-70
2020/12/30 01:56:42;;;;;;;17.83;7.43;;;;;;;7.05;81.40;100248.06;127853;1091;104397;-70
2020/12/30 01:59:13;;;;;;;19.10;8.40;;;;;;;7.06;81.81;100248.94;127845;1091;104580;-70
2020/12/30 02:01:47;;;;;;;19.40;7.83;;;;;;;7.07;81.87;100243.80;127794;1092;104468;-70
2020/12/30 02:04:21;;;;;;;17.80;8.43;;;;;;;7.06;81.47;100238.51;127816;1092;104401;-70
2020/12/30 02:06:49;;;;;;;17.42;7.83;;;;;;;7.06;81.59;100239.42;127834;1091;104403;-70
2020/12/30 02:09:19;;;;;;;18.37;8.20;;;;;;;7.02;81.56;100245.31;127838;1091;104401;-70
2020/12/30 02:11:50;;;;;;;19.20;8.47;;;;;;;7.01;81.74;100236.60;127833;1092;104403;-70
2020/12/30 02:14:21;;;;;;;18.03;8.30;;;;;;;7.02;81.64;100232.27;127805;1091;104474;-71
2020/12/30 02:16:52;;;;;;;20.73;7.50;;;;;;;6.99;81.66;100232.12;127817;1092;104400;-72
2020/12/30 02:19:22;;;;;;;14.60;6.80;;;;;;;6.99;81.29;100227.80;127845;1092;104448;-69
2020/12/30 02:21:55;;;;;;;18.17;7.23;;;;;;;6.97;81.31;100228.56;127866;1091;104420;-69
2020/12/30 02:24:27;;;;;;;17.47;8.30;;;;;;;6.94;80.97;100229.31;127823;1091;104491;-72
2020/12/30 02:26:57;;;;;;;17.27;6.87;;;;;;;6.90;81.59;100226.48;127790;1091;104910;-69
2020/12/30 02:29:27;;;;;;;18.87;7.90;;;;;;;6.86;81.80;100219.33;127845;1091;104449;-69
2020/12/30 02:31:56;;;;;;;16.80;7.90;;;;;;;6.83;81.68;100209.67;127788;1092;104403;-70
2020/12/30 02:34:25;;;;;;;20.73;7.70;;;;;;;6.84;81.48;100214.96;127817;1092;104456;-71
2020/12/30 02:36:55;;;;;;;20.60;8.27;;;;;;;6.88;81.82;100215.10;127805;1091;104538;-71
2020/12/30 02:39:24;;;;;;;19.33;7.83;;;;;;;6.92;81.83;100215.31;127784;1091;104529;-71
2020/12/30 02:41:53;;;;;;;18.23;7.47;;;;;;;6.94;81.87;100212.78;127798;1092;104516;-71
2020/12/30 02:44:22;;;;;;;19.97;8.03;;;;;;;6.93;81.75;100206.64;127806;1091;104519;-70
2020/12/30 02:46:52;;;;;;;22.43;9.13;;;;;;;6.94;81.63;100202.34;127793;1091;104414;-71
2020/12/30 02:49:21;;;;;;;18.37;8.63;;;;;;;6.91;81.73;100199.59;127732;1092;104424;-72
2020/12/30 02:51:49;;;;;;;20.93;8.53;;;;;;;6.87;81.80;100205.48;127775;1092;104411;-70
2020/12/30 02:54:18;;;;;;;19.43;8.57;;;;;;;6.84;81.67;100207.14;127808;1091;104503;-70
2020/12/30 02:56:47;;;;;;;23.70;8.30;;;;;;;6.85;81.63;100213.23;127835;1092;104401;-71
2020/12/30 02:59:16;;;;;;;16.80;7.23;;;;;;;6.87;81.94;100211.58;127811;1092;104407;-70
2020/12/30 03:01:46;;;;;;;20.67;7.53;;;;;;;6.89;81.65;100202.13;127799;1091;104429;-70
2020/12/30 03:04:15;;;;;;;17.83;7.50;;;;;;;6.91;81.88;100200.47;127758;1091;104564;-71
2020/12/30 03:06:44;;;;;;;18.10;8.50;;;;;;;6.93;81.79;100213.59;127776;1092;104410;-71
2020/12/30 03:09:13;;;;;;;20.37;8.17;;;;;;;6.93;81.73;100216.20;127777;1091;104426;-71
2020/12/30 03:11:42;;;;;;;18.47;7.70;;;;;;;6.92;81.88;100215.31;127829;1091;104615;-71
2020/12/30 03:14:10;;;;;;;17.67;8.23;;;;;;;6.88;81.56;100220.32;127775;1092;104912;-72
2020/12/30 03:16:39;;;;;;;19.73;7.90;;;;;;;6.89;81.52;100219.47;127761;1092;104458;-71
2020/12/30 03:19:08;;;;;;;18.13;7.93;;;;;;;6.87;81.38;100219.41;127817;1091;104429;-71
2020/12/30 03:21:37;;;;;;;23.13;8.63;;;;;;;6.89;81.69;100219.47;127841;1091;104465;-71
2020/12/30 03:24:06;;;;;;;20.67;9.30;;;;;;;6.88;81.40;100221.20;127844;1092;104502;-71
2020/12/30 03:26:35;;;;;;;18.57;8.57;;;;;;;6.90;81.55;100218.66;127800;1091;104971;-71
2020/12/30 03:29:05;;;;;;;20.70;8.17;;;;;;;6.87;81.51;100222.02;127805;1092;104430;-71
2020/12/30 03:31:33;;;;;;;22.90;9.15;;;;;;;6.87;81.72;100218.52;127743;1092;104464;-72
2020/12/30 03:34:02;;;;;;;20.73;9.17;;;;;;;6.81;81.53;100222.64;127750;1092;104532;-70
2020/12/30 03:36:32;;;;;;;20.97;8.20;;;;;;;6.78;81.87;100217.28;127820;1092;104420;-70
2020/12/30 03:39:00;;;;;;;18.00;7.70;;;;;;;6.79;81.43;100221.69;127841;1092;104404;-70
2020/12/30 03:41:29;;;;;;;19.23;7.70;;;;;;;6.77;81.51;100228.53;127760;1091;104654;-69
2020/12/30 03:43:59;;;;;;;18.83;8.27;;;;;;;6.75;81.55;100226.69;127817;1091;104598;-69
2020/12/30 03:46:28;;;;;;;18.83;7.60;;;;;;;6.72;81.51;100227.42;127719;1091;104529;-71
2020/12/30 03:48:56;;;;;;;16.57;7.37;;;;;;;6.73;81.49;100218.80;127745;1092;104401;-70
2020/12/30 03:51:25;;;;;;;17.73;7.50;;;;;;;6.74;81.37;100223.16;127761;1092;104455;-70
2020/12/30 03:53:54;;;;;;;19.10;7.90;;;;;;;6.74;81.72;100225.77;127788;1091;104532;-72
2020/12/30 03:56:23;;;;;;;20.43;7.87;;;;;;;6.75;81.38;100213.66;127703;1091;104419;-71
2020/12/30 03:58:52;;;;;;;19.03;8.93;;;;;;;6.75;81.46;100217.14;127705;1093;104404;-71
2020/12/30 04:01:21;;;;;;;20.27;7.93;;;;;;;6.73;81.46;100224.02;127826;1091;104541;-70
2020/12/30 04:03:50;;;;;;;16.80;7.37;;;;;;;6.72;81.91;100218.72;127804;1092;104484;-71
2020/12/30 04:06:19;;;;;;;18.60;7.70;;;;;;;6.73;81.74;100217.88;127744;1091;104400;-72
2020/12/30 04:08:48;;;;;;;18.17;7.37;;;;;;;6.71;81.63;100220.41;127809;1092;104420;-71
2020/12/30 04:11:17;;;;;;;16.50;6.77;;;;;;;6.71;81.68;100224.75;127731;1092;104410;-71
2020/12/30 04:13:46;;;;;;;15.80;7.07;;;;;;;6.66;81.24;100222.81;127704;1092;104411;-71
2020/12/30 04:16:23;;;;;;;18.83;7.93;;;;;;;6.61;81.37;100218.22;127786;1091;104465;-71
2020/12/30 04:18:52;;;;;;;18.90;7.00;;;;;;;6.57;81.52;100218.88;127739;1091;104598;-71
2020/12/30 04:21:23;;;;;;;16.53;7.10;;;;;;;6.56;81.62;100215.40;127812;1091;104407;-72
2020/12/30 04:23:54;;;;;;;16.27;6.77;;;;;;;6.57;81.41;100214.55;127764;1092;104445;-71
2020/12/30 04:26:23;;;;;;;19.30;7.07;;;;;;;6.60;81.54;100226.85;127679;1091;106092;-72
2020/12/30 04:28:52;;;;;;;16.03;7.00;;;;;;;6.63;81.46;100225.27;127728;1092;104589;-72
2020/12/30 04:31:21;;;;;;;13.87;6.27;;;;;;;6.66;81.61;100229.75;127734;1092;104401;-71
2020/12/30 04:33:50;;;;;;;17.90;6.83;;;;;;;6.66;81.67;100228.02;127763;1091;104528;-71
2020/12/30 04:36:19;;;;;;;16.47;6.50;;;;;;;6.64;81.74;100234.89;127797;1092;104477;-71
2020/12/30 04:38:48;;;;;;;16.97;6.67;;;;;;;6.61;81.82;100245.17;127781;1091;104397;-72
2020/12/30 04:41:22;;;;;;;20.17;7.50;;;;;;;6.59;81.58;100245.91;127768;1092;104855;-71
2020/12/30 04:43:51;;;;;;;;;;;;;;;6.57;81.52;100237.13;127839;1091;104410;-70
2020/12/30 04:46:21;;;;;;;16.97;6.90;;;;;;;6.56;81.88;100222.30;127811;1092;104404;-70
2020/12/30 04:48:50;;;;;;;17.37;6.70;;;;;;;6.55;81.89;100223.14;127805;1091;104413;-72
2020/12/30 04:51:20;;;;;;;20.40;6.27;;;;;;;6.57;81.54;100229.31;127779;1091;104400;-73
2020/12/30 04:53:51;;;;;;;15.33;6.10;;;;;;;6.59;81.84;100219.84;127781;1092;104449;-75
2020/12/30 04:56:38;;;;;;;17.90;6.80;;;;;;;6.60;81.52;100225.12;127792;1091;104510;-73
2020/12/30 04:59:10;;;;;;;15.40;6.57;;;;;;;6.62;81.68;100219.98;127728;1091;104862;-73
2020/12/30 05:01:54;;;;;;;17.90;7.67;;;;;;;6.61;81.68;100223.44;127781;1091;104414;-73
2020/12/30 05:04:26;;;;;;;18.73;6.72;;;;;;;6.58;81.71;100226.78;127992;1092;104458;-73
2020/12/30 05:07:02;;;;;;;18.43;7.07;;;;;;;6.59;81.82;100227.66;127715;1092;104417;-72
2020/12/30 05:09:33;;;;;;;14.47;6.23;;;;;;;6.57;81.81;100224.98;127710;1091;104416;-73
2020/12/30 05:12:02;;;;;;;19.93;7.00;;;;;;;6.58;81.50;100236.33;127789;1091;104404;-72
2020/12/30 05:14:31;;;;;;;15.33;7.00;;;;;;;6.58;81.93;100231.11;127818;1091;104413;-73
2020/12/30 05:17:02;;;;;;;20.03;6.97;;;;;;;6.60;81.67;100229.45;127756;1091;104413;-75
2020/12/30 05:19:32;;;;;;;20.40;7.80;;;;;;;6.62;81.73;100235.62;127821;1091;104541;-74
2020/12/30 05:22:01;;;;;;;17.47;7.13;;;;;;;6.61;81.95;100244.29;127601;1092;104598;-74
2020/12/30 05:24:30;;;;;;;17.47;7.33;;;;;;;6.59;81.97;100238.09;127699;1091;104403;-75
2020/12/30 05:27:00;;;;;;;20.27;7.63;;;;;;;6.56;81.96;100241.47;127645;1092;104436;-75
2020/12/30 05:29:29;;;;;;;19.20;7.17;;;;;;;6.55;82.09;100236.18;127744;1091;104548;-75
2020/12/30 05:31:58;;;;;;;19.50;7.33;;;;;;;6.54;82.03;100237.87;127822;1091;104532;-74
2020/12/30 05:34:27;;;;;;;20.30;7.53;;;;;;;6.57;81.89;100229.31;127790;1091;105102;-75
2020/12/30 05:36:56;;;;;;;18.77;7.63;;;;;;;6.60;82.12;100242.49;127754;1092;104407;-75
2020/12/30 05:39:32;;;;;;;17.63;8.17;;;;;;;6.61;81.83;100246.90;127746;1091;104435;-76
2020/12/30 05:42:11;;;;;;;20.70;8.00;;;;;;;6.59;82.02;100249.43;127784;1091;104468;-75
2020/12/30 05:44:41;;;;;;;18.40;8.23;;;;;;;6.60;81.90;100245.10;127556;1091;104407;-76
2020/12/30 05:47:15;;;;;;;23.10;8.60;;;;;;;6.62;81.95;100251.27;127325;1093;104561;-76
2020/12/30 05:49:45;;;;;;;21.13;8.07;;;;;;;6.65;81.81;100259.23;127310;1092;104436;-76
2020/12/30 05:52:17;;;;;;;18.67;7.47;;;;;;;6.68;81.77;100256.78;127259;1092;104458;-75
2020/12/30 05:54:57;;;;;;;21.13;7.63;;;;;;;6.70;81.66;100264.67;127238;1091;104484;-75
2020/12/30 05:57:28;;;;;;;25.13;8.40;;;;;;;6.69;82.26;100258.58;127200;1091;104442;-75
2020/12/30 05:59:59;;;;;;;21.53;8.23;;;;;;;6.69;82.16;100265.52;127432;1091;104519;-76
2020/12/30 06:02:31;;;;;;;24.43;8.87;;;;;;;6.68;81.89;100261.11;127498;1092;104490;-75
2020/12/30 06:05:12;;;;;;;20.97;8.30;;;;;;;6.67;82.09;100265.44;127389;1091;104404;-78
2020/12/30 06:07:43;;;;;;;19.57;8.20;;;;;;;6.65;82.14;100262.77;127559;1091;104471;-73
2020/12/30 06:10:17;;;;;;;20.60;8.10;;;;;;;6.64;81.57;100266.18;127573;1091;104403;-74
2020/12/30 06:12:53;;;;;;;21.73;8.77;;;;;;;6.65;82.09;100267.06;127533;1091;104410;-74
2020/12/30 06:15:23;;;;;;;24.85;9.90;;;;;;;6.64;82.11;100270.52;127724;1092;104529;-73
2020/12/30 06:17:56;;;;;;;23.27;9.83;;;;;;;6.64;81.87;100270.52;127547;1092;104449;-73
2020/12/30 06:20:32;;;;;;;23.13;9.83;;;;;;;6.61;82.15;100273.86;127624;1092;104477;-75
2020/12/30 06:23:05;;;;;;;25.07;10.20;;;;;;;6.61;81.97;100270.36;127626;1091;105154;-76
2020/12/30 06:25:36;;;;;;;23.33;9.20;;;;;;;6.61;82.17;100273.86;127719;1091;105086;-75
2020/12/30 06:28:10;;;;;;;22.33;8.63;;;;;;;6.62;81.97;100279.95;127483;1091;104451;-76
2020/12/30 06:30:42;;;;;;;23.53;8.57;;;;;;;6.65;82.16;100274.88;127531;1092;104500;-73
2020/12/30 06:33:13;;;;;;;24.27;8.20;;;;;;;6.68;82.12;100271.54;127370;1092;104432;-74
2020/12/30 06:35:45;;;;;;;22.43;8.90;;;;;;;6.69;81.93;100268.13;127422;1092;104648;-77
2020/12/30 06:38:25;;;;;;;19.10;8.10;;;;;;;6.72;82.30;100252.62;127892;1092;104413;-77
2020/12/30 06:40:56;;;;;;;21.47;7.87;;;;;;;6.73;82.28;100268.34;127325;1093;104426;-75
2020/12/30 06:43:41;;;;;;;17.67;7.87;;;;;;;6.79;82.21;100275.54;127507;1092;104830;-74
2020/12/30 06:46:11;;;;;;;21.17;7.57;;;;;;;6.84;81.94;100274.95;127571;1091;104401;-74
2020/12/30 06:48:55;;;;;;;20.17;7.77;;;;;;;6.92;82.57;100271.78;127441;1092;104433;-75
2020/12/30 06:51:26;;;;;;;22.82;8.90;;;;;;;6.99;82.51;100263.44;127497;1091;104410;-75
2020/12/30 06:53:55;;;;;;;21.57;9.00;;;;;;;7.06;82.42;100275.95;127454;1092;104432;-76
2020/12/30 06:56:38;;;;;;;21.83;9.23;;;;;;;7.07;82.12;100280.33;127276;1092;104561;-76
2020/12/30 06:59:08;;;;;;;22.63;9.40;;;;;;;7.07;82.07;100272.50;127405;1092;104529;-75
2020/12/30 07:01:57;;;;;;;18.00;8.60;;;;;;;7.09;82.18;100270.87;127345;1091;104436;-77
2020/12/30 07:04:29;;;;;;;20.67;7.97;;;;;;;7.12;81.83;100276.23;127235;1091;104542;-78
2020/12/30 07:07:02;;;;;;;24.27;9.97;;;;;;;7.16;82.03;100272.92;127297;1091;104429;-74
2020/12/30 07:09:33;;;;;;;20.20;8.77;;;;;;;7.22;82.07;100274.05;127598;1092;104435;-74
2020/12/30 07:12:03;;;;;;;18.60;8.57;;;;;;;7.30;81.93;100280.50;127597;1092;104432;-76
2020/12/30 07:14:37;;;;;;;22.60;9.35;;;;;;;7.34;81.98;100264.16;127313;1092;104433;-75
2020/12/30 07:17:09;;;;;;;20.07;9.40;;;;;;;7.42;81.67;100268.00;127230;1092;104433;-76
2020/12/30 07:19:40;;;;;;;21.70;9.37;;;;;;;7.48;81.92;100268.27;127153;1092;104891;-75
2020/12/30 07:22:11;;;;;;;21.87;8.23;;;;;;;7.57;82.29;100270.38;127272;1092;104551;-76
2020/12/30 07:24:44;;;;;;;21.83;7.93;;;;;;;7.65;81.92;100265.49;127290;1092;104423;-74
2020/12/30 07:27:16;;;;;;;19.53;7.77;;;;;;;7.72;81.96;100254.50;127228;1091;104420;-73
2020/12/30 07:29:46;;;;;;;19.13;7.80;;;;;;;7.84;81.97;100268.09;127390;1091;104453;-74
2020/12/30 07:32:18;;;;;;;20.03;9.03;;;;;;;7.95;81.84;100259.80;127331;1091;104962;-75
2020/12/30 07:34:48;;;;;;;19.83;9.43;;;;;;;8.04;81.99;100262.80;127282;1091;104432;-75
2020/12/30 07:37:19;;;;;;;20.97;8.60;;;;;;;8.14;82.14;100264.09;127220;1092;104423;-76
2020/12/30 07:39:51;;;;;;;17.63;7.63;;;;;;;8.26;81.71;100262.88;127362;1092;104404;-76
2020/12/30 07:42:23;;;;;;;17.53;6.77;;;;;;;8.34;81.69;100247.50;127466;1092;104592;-75
2020/12/30 07:44:53;;;;;;;21.03;7.93;;;;;;;8.39;81.43;100253.80;127364;1092;104545;-74
2020/12/30 07:47:24;;;;;;;19.73;7.23;;;;;;;8.39;81.82;100250.30;127423;1091;104424;-76
2020/12/30 07:50:00;;;;;;;21.47;7.80;;;;;;;8.37;82.00;100263.31;127641;1092;104423;-74
2020/12/30 07:52:32;;;;;;;20.37;8.43;;;;;;;8.34;81.31;100272.77;127476;1092;104414;-75
2020/12/30 07:55:03;;;;;;;19.93;8.17;;;;;;;8.32;81.14;100269.17;127601;1091;104529;-76
2020/12/30 07:57:33;;;;;;;22.87;8.60;;;;;;;8.33;81.35;100271.85;127552;1092;104391;-75
2020/12/30 08:00:02;;;;;;;16.57;7.53;;;;;;;8.44;82.16;100270.59;127478;1092;104401;-76
2020/12/30 08:02:40;;;;;;;24.80;9.25;;;;;;;8.49;81.72;100262.05;127453;1092;104407;-77
2020/12/30 08:05:10;;;;;;;23.13;9.30;;;;;;;8.56;82.21;100261.48;127429;1092;104519;-75
2020/12/30 08:07:39;;;;;;;20.50;8.17;;;;;;;8.57;81.89;100265.86;127506;1092;104420;-74
2020/12/30 08:10:09;;;;;;;22.87;7.93;;;;;;;8.58;81.66;100275.50;127434;1091;104436;-76
2020/12/30 08:12:38;;;;;;;21.13;9.13;;;;;;;8.62;82.03;100275.69;127395;1092;104555;-77
2020/12/30 08:15:12;;;;;;;20.47;7.93;;;;;;;8.69;81.96;100265.47;127308;1092;104529;-76
2020/12/30 08:17:42;;;;;;;21.03;9.23;;;;;;;8.80;82.00;100266.77;127310;1092;104423;-76
2020/12/30 08:20:14;;;;;;;23.57;9.03;;;;;;;8.87;81.65;100270.54;127309;1091;104435;-77
2020/12/30 08:22:43;;;;;;;22.83;8.97;;;;;;;8.96;81.29;100269.16;127558;1091;104406;-76
2020/12/30 08:25:13;;;;;;;20.30;8.53;;;;;;;9.03;81.04;100272.02;127435;1092;104429;-77
2020/12/30 08:27:44;;;;;;;21.20;8.20;;;;;;;9.07;81.48;100264.34;127585;1092;104407;-75
2020/12/30 08:30:17;;;;;;;21.13;7.80;;;;;;;9.16;81.03;100259.45;127651;1092;104540;-76
2020/12/30 08:32:55;;;;;;;23.17;8.17;;;;;;;9.26;81.72;100255.44;127379;1092;104449;-76
2020/12/30 08:35:30;;;;;;;16.33;6.40;;;;;;;9.38;81.56;100246.24;128424;1092;102893;-77
2020/12/30 08:38:11;;;;;;;18.15;8.15;;;;;;;9.50;81.31;100250.19;127496;1092;104483;-76
2020/12/30 08:40:43;;;;;;;23.13;9.07;;;;;;;9.63;81.43;100246.30;127523;1092;104474;-76
2020/12/30 08:43:41;;;;;;;22.95;8.83;;;;;;;9.82;81.30;100252.19;128464;1092;104506;-76
2020/12/30 08:46:21;;;;;;;26.77;10.37;;;;;;;10.01;81.46;100230.99;127513;1092;104478;-76
2020/12/30 08:48:52;;;;;;;19.27;8.27;;;;;;;10.15;81.08;100236.70;127547;1091;104426;-77
2020/12/30 08:51:33;;;;;;;20.33;8.43;;;;;;;10.23;81.21;100240.45;127516;1091;104602;-77
2020/12/30 08:54:13;;;;;;;22.77;9.10;;;;;;;10.25;80.53;100241.42;127534;1091;104423;-77
2020/12/30 08:56:43;;;;;;;19.33;8.60;;;;;;;10.32;81.07;100245.13;127470;1092;104657;-78
2020/12/30 08:59:22;;;;;;;19.67;8.07;;;;;;;10.44;80.34;100236.80;127457;1093;104586;-78
2020/12/30 09:01:51;;;;;;;18.75;8.20;;;;;;;10.59;80.71;100228.52;127867;1091;104403;-77
2020/12/30 09:04:22;;;;;;;22.80;9.10;;;;;;;10.75;80.54;100229.87;127500;1092;104420;-78
2020/12/30 09:06:52;;;;;;;16.60;7.23;;;;;;;10.89;80.33;100232.91;127478;1091;104443;-78
2020/12/30 09:09:25;;;;;;;21.40;8.63;;;;;;;10.94;80.25;100220.84;127627;1091;104458;-77
2020/12/30 09:11:54;;;;;;;21.57;8.30;;;;;;;10.96;80.52;100208.64;127588;1091;104494;-77
2020/12/30 09:14:25;;;;;;;23.23;8.40;;;;;;;11.03;80.42;100218.48;127476;1092;104633;-77
2020/12/30 09:17:00;;;;;;;18.35;7.50;;;;;;;11.09;80.26;100213.37;127699;1091;103270;-78
2020/12/30 09:19:30;;;;;;;23.65;8.65;;;;;;;11.13;80.31;100215.26;127505;1091;105031;-75
2020/12/30 09:22:09;;;;;;;25.83;9.80;;;;;;;11.22;80.51;100213.73;127555;1092;104529;-76
2020/12/30 09:24:42;;;;;;;22.10;8.50;;;;;;;11.33;80.33;100199.19;127437;1093;104429;-77
2020/12/30 09:27:20;;;;;;;20.40;8.98;;;;;;;11.43;80.47;100201.20;127636;1092;104497;-76
2020/12/30 09:30:13;;;;;;;21.23;8.93;;;;;;;11.54;80.30;100219.02;127836;1091;104499;-77
2020/12/30 09:32:46;;;;;;;24.23;9.20;;;;;;;11.63;80.35;100211.38;127335;1091;104493;-75
2020/12/30 09:35:17;;;;;;;18.73;7.90;;;;;;;11.69;80.18;100206.28;127727;1091;104542;-74
2020/12/30 09:37:52;;;;;;;23.60;8.20;;;;;;;11.74;80.09;100196.77;127692;1091;104405;-75
2020/12/30 09:40:22;;;;;;;17.70;8.23;;;;;;;11.79;78.83;100194.27;127591;1091;104401;-76
2020/12/30 09:42:51;;;;;;;19.43;8.00;;;;;;;11.71;79.37;100191.44;127433;1091;104464;-79
2020/12/30 09:45:21;;;;;;;20.60;7.13;;;;;;;11.69;79.81;100183.51;127441;1092;104436;-75
2020/12/30 09:48:10;;;;;;;16.30;6.47;;;;;;;11.79;79.88;100168.85;127624;1092;104497;-76
2020/12/30 09:50:40;;;;;;;18.10;7.50;;;;;;;11.89;79.74;100172.63;127586;1091;104531;-74
2020/12/30 09:53:13;;;;;;;25.07;7.43;;;;;;;11.93;79.85;100169.23;127498;1092;104481;-75
2020/12/30 09:55:45;;;;;;;22.57;8.20;;;;;;;11.91;79.23;100162.16;127602;1092;104503;-75
2020/12/30 09:58:15;;;;;;;21.43;8.80;;;;;;;11.97;79.82;100147.44;127657;1092;104407;-76
2020/12/30 10:00:45;;;;;;;24.73;8.80;;;;;;;12.05;79.96;100143.24;127495;1091;104454;-76
2020/12/30 10:03:14;;;;;;;20.70;8.17;;;;;;;12.20;80.02;100147.98;127578;1092;104407;-74
2020/12/30 10:05:44;;;;;;;19.97;8.40;;;;;;;12.39;79.86;100148.42;127586;1091;104420;-75
2020/12/30 10:08:17;;;;;;;19.37;7.90;;;;;;;12.45;79.18;100139.75;127375;1091;104436;-73
2020/12/30 10:10:49;;;;;;;20.33;8.40;;;;;;;12.37;79.22;100147.47;127356;1093;104542;-74
2020/12/30 10:13:21;;;;;;;20.63;8.40;;;;;;;12.29;79.06;100149.05;127395;1092;104449;-77
2020/12/30 10:15:50;;;;;;;16.03;6.97;;;;;;;12.29;79.15;100138.52;127239;1092;104535;-75
2020/12/30 10:18:19;;;;;;;17.53;7.50;;;;;;;12.25;79.03;100144.56;127395;1092;104394;-74
2020/12/30 10:20:51;;;;;;;17.87;6.50;;;;;;;12.19;78.75;100140.94;127276;1091;104426;-76
2020/12/30 10:23:20;;;;;;;18.20;7.93;;;;;;;12.22;79.28;100137.50;128891;1092;102494;-76
2020/12/30 10:25:55;;;;;;;19.13;7.90;;;;;;;12.26;79.09;100144.59;127699;1092;104653;-74
2020/12/30 10:28:25;;;;;;;17.90;7.67;;;;;;;12.28;78.91;100142.00;127382;1092;104487;-75
2020/12/30 10:30:54;;;;;;;19.90;7.87;;;;;;;12.25;78.90;100141.92;127375;1091;104487;-75
2020/12/30 10:33:24;;;;;;;18.93;7.30;;;;;;;12.20;79.20;100139.19;127407;1091;104420;-75
2020/12/30 10:35:52;;;;;;;22.67;7.70;;;;;;;12.18;78.83;100130.38;127350;1092;104550;-75
2020/12/30 10:38:22;;;;;;;17.47;8.30;;;;;;;12.16;78.63;100132.10;127445;1091;104465;-75
2020/12/30 10:40:51;;;;;;;20.03;7.87;;;;;;;12.00;78.50;100128.23;127484;1091;104430;-73
2020/12/30 10:43:20;;;;;;;19.03;7.93;;;;;;;11.90;78.75;100129.69;127478;1092;104532;-77
2020/12/30 10:45:49;;;;;;;19.43;8.10;;;;;;;11.81;78.84;100130.38;127558;1091;104432;-75
2020/12/30 10:48:18;;;;;;;20.47;7.77;;;;;;;11.82;78.89;100121.61;127336;1092;104485;-77
2020/12/30 10:50:47;;;;;;;20.70;7.90;;;;;;;11.83;79.05;100109.38;127404;1091;104449;-77
2020/12/30 10:53:16;;;;;;;15.83;7.50;;;;;;;11.84;79.20;100111.14;127353;1092;104904;-76
2020/12/30 10:55:46;;;;;;;17.37;7.53;;;;;;;11.78;78.82;100119.78;127529;1092;104424;-78
2020/12/30 10:58:16;;;;;;;21.13;7.57;;;;;;;11.71;78.91;100123.09;127545;1091;104424;-75
2020/12/30 11:00:45;;;;;;;19.07;7.13;;;;;;;11.63;78.71;100119.40;127416;1091;104503;-78
2020/12/30 11:03:19;;;;;;;17.27;6.90;;;;;;;11.63;78.94;100119.40;127308;1092;104439;-77
2020/12/30 11:05:50;;;;;;;18.83;6.20;;;;;;;11.64;78.57;100115.89;127087;1092;104517;-76
2020/12/30 11:08:25;;;;;;;16.20;6.15;;;;;;;11.60;79.22;100114.06;127214;1092;104535;-75
2020/12/30 11:10:56;;;;;;;13.87;6.20;;;;;;;11.57;78.65;100114.86;127232;1091;104602;-74
2020/12/30 11:13:26;;;;;;;15.47;6.53;;;;;;;11.58;78.82;100115.77;127264;1091;104429;-74
2020/12/30 11:15:55;;;;;;;18.57;6.97;;;;;;;11.60;78.71;100116.69;127203;1092;104570;-74
2020/12/30 11:18:24;;;;;;;18.87;7.07;;;;;;;11.60;79.06;100124.58;127225;1093;104429;-74
2020/12/30 11:20:53;;;;;;;17.40;7.07;;;;;;;11.63;78.78;100122.02;127428;1092;104426;-77
2020/12/30 11:23:23;;;;;;;15.87;5.83;;;;;;;11.65;78.86;100128.20;127203;1091;104546;-74
2020/12/30 11:25:54;;;;;;;12.73;6.83;;;;;;;11.67;78.90;100129.11;127230;1092;104432;-77